createdAt,value
2023-09-11T00:00:59.195Z,15.00
2023-09-11T00:05:05.613Z,15.43
2023-09-11T00:09:11.060Z,16.07
2023-09-11T00:13:14.432Z,15.50
2023-09-11T00:17:17.807Z,14.70
2023-09-11T00:21:22.591Z,15.97
2023-09-11T00:25:29.812Z,14.43
2023-09-11T00:29:33.211Z,14.40
2023-09-11T00:33:37.776Z,14.80
2023-09-11T00:37:42.500Z,14.17
2023-09-11T00:41:45.915Z,15.60
2023-09-11T00:45:52.204Z,15.13
2023-09-11T00:49:57.320Z,15.10
2023-09-11T00:54:02.281Z,15.23
2023-09-11T00:58:05.907Z,15.70
2023-09-11T01:02:09.755Z,15.70
2023-09-11T01:06:13.219Z,15.40
2023-09-11T01:10:18.095Z,15.30
2023-09-11T01:14:21.750Z,14.17
2023-09-11T01:18:32.493Z,15.20
2023-09-11T01:22:54.539Z,15.10
2023-09-11T01:27:33.264Z,14.33
2023-09-11T01:31:40.209Z,15.87
2023-09-11T01:35:43.525Z,15.10
2023-09-11T01:39:46.969Z,16.00
2023-09-11T01:43:52.622Z,17.23
2023-09-11T01:47:58.422Z,15.80
2023-09-11T01:52:03.778Z,15.50
2023-09-11T01:56:07.303Z,16.67
2023-09-11T02:00:13.157Z,16.63
2023-09-11T02:04:18.231Z,15.87
2023-09-11T02:08:21.704Z,15.77
2023-09-11T02:12:25.018Z,15.67
2023-09-11T02:16:33.342Z,15.97
2023-09-11T02:20:38.113Z,15.23
2023-09-11T02:24:41.679Z,15.60
2023-09-11T02:28:45.201Z,15.53
2023-09-11T02:32:48.594Z,14.70
2023-09-11T02:36:53.378Z,17.73
2023-09-11T02:41:08.454Z,16.60
2023-09-11T02:45:13.548Z,16.57
2023-09-11T02:49:16.846Z,15.63
2023-09-11T02:53:22.204Z,15.30
2023-09-11T02:57:26.050Z,15.97
2023-09-11T03:01:29.356Z,15.47
2023-09-11T03:05:33.959Z,15.37
2023-09-11T03:09:39.025Z,16.23
2023-09-11T03:13:42.354Z,15.23
2023-09-11T03:17:50.047Z,15.67
2023-09-11T03:21:55.678Z,16.80
2023-09-11T03:26:01.809Z,15.43
2023-09-11T03:30:05.885Z,15.60
2023-09-11T03:34:09.511Z,16.60
2023-09-11T03:38:13.141Z,15.23
2023-09-11T03:42:17.908Z,16.23
2023-09-11T03:46:21.878Z,16.23
2023-09-11T03:50:25.389Z,14.67
2023-09-11T03:54:28.967Z,14.80
2023-09-11T03:58:33.870Z,15.73
2023-09-11T04:02:37.296Z,15.37
2023-09-11T04:06:40.645Z,15.40
2023-09-11T04:10:45.326Z,15.83
2023-09-11T04:14:50.178Z,17.90
2023-09-11T04:18:53.871Z,16.00
2023-09-11T04:22:57.536Z,15.00
2023-09-11T04:27:02.170Z,16.40
2023-09-11T04:31:34.202Z,15.87
2023-09-11T04:35:37.871Z,15.90
2023-09-11T04:45:00.256Z,16.50
2023-09-11T04:55:14.381Z,15.90
2023-09-11T04:59:26.362Z,18.90
2023-09-11T05:03:30.051Z,17.00
2023-09-11T05:07:33.854Z,16.13
2023-09-11T05:15:58.767Z,16.87
2023-09-11T05:20:02.157Z,16.40
2023-09-11T05:24:06.016Z,16.23
2023-09-11T05:28:09.488Z,16.50
2023-09-11T05:32:15.147Z,16.57
2023-09-11T05:36:18.882Z,17.70
2023-09-11T05:40:22.858Z,17.53
2023-09-11T05:44:26.175Z,18.80
2023-09-11T05:48:31.396Z,17.50
2023-09-11T05:52:35.069Z,17.40
2023-09-11T05:56:38.476Z,18.67
2023-09-11T06:00:42.127Z,18.53
2023-09-11T06:04:46.839Z,19.73
2023-09-11T06:08:51.200Z,23.60
2023-09-11T06:12:54.637Z,19.97
2023-09-11T06:16:58.183Z,21.37
2023-09-11T06:21:04.204Z,20.17
2023-09-11T06:25:08.383Z,20.07
2023-09-11T06:29:12.017Z,19.87
2023-09-11T06:33:15.465Z,21.60
2023-09-11T06:37:20.272Z,21.93
2023-09-11T06:41:23.541Z,21.60
2023-09-11T06:45:45.623Z,22.47
2023-09-11T06:49:49.561Z,21.23
2023-09-11T06:53:54.877Z,23.07
2023-09-11T06:58:00.066Z,23.40
2023-09-11T07:02:04.898Z,25.50
2023-09-11T07:06:08.375Z,25.10
2023-09-11T07:10:17.216Z,22.53
2023-09-11T07:14:24.160Z,21.57
2023-09-11T07:18:28.263Z,22.03
2023-09-11T07:22:32.843Z,20.90
2023-09-11T07:26:37.653Z,19.00
2023-09-11T07:30:41.344Z,21.07
2023-09-11T07:34:44.779Z,18.70
2023-09-11T07:38:48.296Z,17.13
2023-09-11T07:42:54.284Z,17.93
2023-09-11T07:46:57.776Z,16.20
2023-09-11T08:16:32.418Z,12.67
2023-09-11T08:20:35.945Z,10.80
2023-09-11T08:24:40.382Z,11.67
2023-09-11T08:28:44.004Z,11.27
2023-09-11T08:32:49.175Z,11.73
2023-09-11T08:36:52.734Z,10.80
2023-09-11T08:40:56.437Z,11.23
2023-09-11T08:44:59.944Z,10.10
2023-09-11T08:49:07.691Z,10.43
2023-09-11T08:53:13.133Z,9.00
2023-09-11T08:57:18.214Z,10.80
2023-09-11T09:01:23.504Z,10.07
2023-09-11T09:05:29.493Z,9.60
2023-09-11T09:09:34.315Z,9.50
2023-09-11T09:13:38.552Z,10.00
2023-09-11T09:17:41.947Z,10.00
2023-09-11T09:22:17.120Z,9.67
2023-09-11T09:26:21.242Z,8.73
2023-09-11T09:30:25.903Z,10.23
2023-09-11T09:34:29.373Z,10.10
2023-09-11T09:38:34.477Z,10.73
2023-09-11T09:42:42.517Z,9.57
2023-09-11T09:46:46.870Z,9.83
2023-09-11T09:50:53.833Z,10.50
2023-09-11T09:55:00.777Z,10.90
2023-09-11T09:59:04.154Z,9.13
2023-09-11T10:03:09.578Z,10.40
2023-09-11T10:07:13.081Z,10.10
2023-09-11T10:11:31.608Z,10.63
2023-09-11T10:15:37.517Z,9.67
2023-09-11T10:19:41.975Z,9.97
2023-09-11T10:24:29.130Z,10.20
2023-09-11T10:28:40.399Z,9.87
2023-09-11T10:32:51.048Z,9.10
2023-09-11T10:37:11.509Z,9.37
2023-09-11T10:41:15.771Z,9.67
2023-09-11T10:45:30.581Z,9.33
2023-09-11T10:49:42.157Z,8.20
2023-09-11T10:53:55.791Z,8.77
2023-09-11T10:58:00.523Z,8.97
2023-09-11T11:02:14.586Z,8.30
2023-09-11T11:06:20.323Z,9.30
2023-09-11T11:10:23.870Z,9.53
2023-09-11T11:14:27.496Z,8.60
2023-09-11T11:18:33.236Z,8.40
2023-09-11T11:22:42.457Z,7.90
2023-09-11T11:26:46.763Z,7.03
2023-09-11T11:30:54.102Z,9.07
2023-09-11T11:35:02.708Z,7.57
2023-09-11T11:39:06.266Z,8.10
2023-09-11T11:43:09.655Z,8.13
2023-09-11T11:47:13.385Z,7.80
2023-09-11T11:51:28.334Z,7.20
2023-09-11T11:55:31.875Z,8.30
2023-09-11T11:59:36.343Z,7.27
2023-09-11T12:03:48.812Z,7.63
2023-09-11T12:07:53.642Z,8.60
2023-09-11T12:11:58.100Z,7.77
2023-09-11T12:16:02.715Z,7.47
2023-09-11T12:20:14.149Z,8.33
2023-09-11T12:24:19.068Z,8.30
2023-09-11T12:28:24.703Z,7.70
2023-09-11T12:32:31.147Z,7.37
2023-09-11T12:36:34.983Z,7.33
2023-09-11T12:40:40.162Z,7.20
2023-09-11T12:44:44.597Z,7.37
2023-09-11T12:48:48.844Z,6.60
2023-09-11T12:52:52.428Z,7.43
2023-09-11T12:56:57.683Z,7.87
2023-09-11T13:01:01.178Z,7.10
2023-09-11T13:05:08.701Z,6.90
2023-09-11T13:09:12.199Z,5.87
2023-09-11T13:13:29.101Z,6.37
2023-09-11T13:17:39.368Z,6.40
2023-09-11T13:21:42.924Z,6.20
2023-09-11T13:25:46.512Z,6.57
2023-09-11T13:30:11.544Z,7.37
2023-09-11T13:34:14.974Z,6.93
2023-09-11T13:38:18.285Z,6.70
2023-09-11T13:42:35.289Z,6.67
2023-09-11T13:46:40.477Z,6.10
2023-09-11T13:50:44.325Z,6.90
2023-09-11T13:54:48.543Z,5.70
2023-09-11T13:58:52.850Z,6.57
2023-09-11T14:03:03.081Z,6.37
2023-09-11T14:07:07.568Z,6.13
2023-09-11T14:11:11.936Z,5.93
2023-09-11T14:15:16.947Z,6.27
2023-09-11T14:19:22.318Z,6.50
2023-09-11T14:23:25.682Z,7.00
2023-09-11T14:27:29.106Z,6.17
2023-09-11T14:31:34.219Z,6.50
2023-09-11T14:35:39.171Z,6.53
2023-09-11T14:39:42.976Z,7.00
2023-09-11T14:43:46.860Z,7.83
2023-09-11T14:47:51.021Z,6.73
2023-09-11T14:51:56.282Z,7.50
2023-09-11T14:56:02.282Z,7.77
2023-09-11T15:00:09.658Z,7.23
2023-09-11T15:04:35.343Z,7.50
2023-09-11T15:08:40.097Z,8.50
2023-09-11T15:12:43.699Z,8.70
2023-09-11T15:16:47.274Z,9.10
2023-09-11T15:20:50.685Z,10.10
2023-09-11T15:24:57.830Z,8.90
2023-09-11T15:29:01.084Z,9.27
2023-09-11T15:33:04.995Z,9.83
2023-09-11T15:37:15.205Z,9.50
2023-09-11T15:41:20.725Z,9.90
2023-09-11T15:45:25.348Z,9.63
2023-09-11T15:49:29.180Z,10.00
2023-09-11T15:53:33.139Z,10.60
2023-09-11T15:57:39.286Z,9.97
2023-09-11T16:01:43.784Z,10.77
2023-09-11T16:05:49.996Z,10.57
2023-09-11T16:09:54.161Z,11.03
2023-09-11T16:19:22.691Z,10.57
2023-09-11T16:23:27.271Z,10.70
2023-09-11T16:27:31.522Z,11.23
2023-09-11T16:31:36.211Z,12.47
2023-09-11T16:35:43.157Z,10.83
2023-09-11T16:39:47.528Z,10.37
2023-09-11T16:43:51.793Z,11.87
2023-09-11T16:47:57.811Z,12.27
2023-09-11T16:52:03.868Z,12.77
2023-09-11T16:56:08.685Z,11.97
2023-09-11T17:00:15.074Z,12.47
2023-09-11T17:04:42.862Z,13.87
2023-09-11T17:08:52.194Z,11.90
2023-09-11T17:12:56.679Z,13.70
2023-09-11T17:17:01.306Z,13.17
2023-09-11T17:21:07.178Z,13.00
2023-09-11T17:25:13.831Z,13.43
2023-09-11T17:29:18.453Z,14.60
2023-09-11T17:33:23.706Z,12.97
2023-09-11T17:37:28.213Z,13.00
2023-09-11T17:41:35.336Z,13.97
2023-09-11T17:45:40.109Z,14.30
2023-09-11T17:49:45.749Z,14.90
2023-09-11T17:53:53.082Z,13.80
2023-09-11T17:57:58.361Z,14.03
2023-09-11T18:02:04.715Z,14.60
2023-09-11T18:06:10.992Z,14.90
2023-09-11T18:10:16.476Z,16.07
2023-09-11T18:14:27.196Z,14.37
2023-09-11T18:18:35.042Z,15.20
2023-09-11T18:22:48.262Z,15.33
2023-09-11T18:26:53.146Z,15.20
2023-09-11T18:31:00.105Z,15.43
2023-09-11T18:35:08.797Z,14.00
2023-09-11T18:39:23.283Z,16.20
2023-09-11T18:43:33.264Z,15.17
2023-09-11T18:47:49.520Z,15.00
2023-09-11T18:51:57.874Z,15.60
2023-09-11T18:56:06.174Z,14.63
2023-09-11T19:00:15.148Z,14.83
2023-09-11T19:04:26.768Z,15.27
2023-09-11T19:08:33.541Z,15.60
2023-09-11T19:12:43.699Z,15.43
2023-09-11T19:16:53.512Z,16.40
2023-09-11T19:21:01.270Z,16.70
2023-09-11T19:25:10.514Z,17.10
2023-09-11T19:29:19.803Z,16.93
2023-09-11T19:33:25.903Z,16.43
2023-09-11T19:37:37.916Z,15.97
2023-09-11T19:41:45.203Z,16.40
2023-09-11T19:45:55.628Z,16.40
2023-09-11T19:50:02.639Z,16.37
2023-09-11T19:54:09.292Z,16.87
2023-09-11T19:58:12.896Z,16.60
2023-09-11T20:02:24.670Z,17.53
2023-09-11T20:06:29.837Z,15.70
2023-09-11T20:10:36.944Z,17.47
2023-09-11T20:15:00.216Z,17.23
2023-09-11T20:19:24.240Z,18.60
2023-09-11T20:23:32.149Z,16.13
2023-09-11T20:27:54.644Z,16.37
2023-09-11T20:32:03.220Z,18.07
2023-09-11T20:36:34.603Z,17.30
2023-09-11T20:40:49.115Z,17.97
2023-09-11T20:44:54.844Z,17.53
2023-09-11T20:49:08.735Z,17.70
2023-09-11T20:53:12.941Z,16.63
2023-09-11T20:57:23.220Z,17.27
2023-09-11T21:01:27.960Z,16.47
2023-09-11T21:05:31.650Z,18.43
2023-09-11T21:09:35.138Z,18.40
2023-09-11T21:13:38.548Z,17.70
2023-09-11T21:17:43.214Z,18.93
2023-09-11T21:21:47.604Z,19.03
2023-09-11T21:25:52.485Z,18.80
2023-09-11T21:29:57.948Z,18.60
2023-09-11T21:34:02.678Z,20.30
2023-09-11T21:38:06.126Z,20.43
2023-09-11T21:42:09.628Z,19.53
2023-09-11T21:46:13.723Z,20.50
2023-09-11T21:50:18.505Z,21.00
2023-09-11T21:54:23.103Z,21.10
2023-09-11T21:58:27.434Z,20.40
2023-09-11T22:02:30.945Z,20.87
2023-09-11T22:06:36.010Z,21.73
2023-09-11T22:10:42.042Z,21.30
2023-09-11T22:14:48.242Z,21.47
2023-09-11T22:18:51.611Z,22.30
2023-09-11T22:22:56.411Z,22.83
2023-09-11T22:27:06.164Z,21.23
2023-09-11T22:31:13.131Z,24.43
2023-09-11T22:35:16.491Z,24.90
2023-09-11T22:39:21.366Z,23.70
2023-09-11T22:43:24.742Z,25.20
2023-09-11T22:47:29.097Z,25.10
2023-09-11T22:51:32.477Z,24.50
2023-09-11T22:55:39.938Z,22.77
2023-09-11T22:59:43.452Z,24.27
2023-09-11T23:03:47.580Z,25.03
2023-09-11T23:07:52.466Z,26.60
2023-09-11T23:11:57.263Z,24.67
2023-09-11T23:16:01.705Z,28.70
2023-09-11T23:20:13.466Z,27.13
2023-09-11T23:24:17.170Z,26.40
2023-09-11T23:28:21.913Z,28.13
2023-09-11T23:32:25.261Z,28.60
2023-09-11T23:36:28.687Z,26.37
2023-09-11T23:40:32.156Z,28.20
2023-09-11T23:44:36.778Z,28.30
2023-09-11T23:48:40.251Z,29.73
2023-09-11T23:52:43.789Z,30.17
2023-09-11T23:56:47.080Z,29.07
